Time;durP1;ratioP1;P1;durP2;ratioP2;P2;SDS_P1;SDS_P2;PMS_P1;PMS_P2;Temp;Humidity;BMP_temperature;BMP_pressure;BME280_temperature;BME280_humidity;BME280_pressure;Samples;Min_cycle;Max_cycle;Signal;HPM_P1;HPM_P2
2022/09/15 00:00:11;;;;;;;0.30;0.17;;;;;;;;;;4145295;28;20366;-46
2022/09/15 00:02:12;;;;;;;0.20;0.17;;;;;;;;;;4146259;28;20104;-50
2022/09/15 00:04:13;;;;;;;0.98;0.20;;;;;;;;;;4146335;28;20143;-47
2022/09/15 00:06:15;;;;;;;0.15;0.10;;;;;;;;;;4146698;28;20104;-46
2022/09/15 00:08:16;;;;;;;0.10;0.10;;;;;;;;;;4150007;28;20058;-46
2022/09/15 00:10:18;;;;;;;0.40;0.28;;;;;;;;;;4149871;28;20107;-46
2022/09/15 00:12:19;;;;;;;0.40;0.10;;;;;;;;;;4149822;28;20096;-46
2022/09/15 00:14:20;;;;;;;1.05;0.30;;;;;;;;;;4149972;28;20107;-45
2022/09/15 00:16:23;;;;;;;0.10;0.10;;;;;;;;;;4149839;28;20450;-47
2022/09/15 00:18:24;;;;;;;0.10;0.10;;;;;;;;;;4149031;28;20456;-45
2022/09/15 00:20:26;;;;;;;0.30;0.17;;;;;;;;;;4148369;28;20410;-46
2022/09/15 00:22:29;;;;;;;0.45;0.10;;;;;;;;;;4149723;28;20059;-46
2022/09/15 00:24:30;;;;;;;0.28;0.20;;;;;;;;;;4149559;28;20077;-47
2022/09/15 00:26:32;;;;;;;0.10;0.10;;;;;;;;;;4148720;28;20077;-45
2022/09/15 00:28:33;;;;;;;0.47;0.20;;;;;;;;;;4149466;28;20120;-47
2022/09/15 00:30:39;;;;;;;0.17;0.17;;;;;;;;;;4149685;28;20060;-47
2022/09/15 00:32:41;;;;;;;0.10;0.10;;;;;;;;;;4149020;28;20104;-46
2022/09/15 00:34:42;;;;;;;0.10;0.10;;;;;;;;;;4149558;28;20136;-47
2022/09/15 00:36:43;;;;;;;0.45;0.20;;;;;;;;;;4149494;28;20061;-48
2022/09/15 00:38:44;;;;;;;0.30;0.20;;;;;;;;;;4149464;28;20088;-46
2022/09/15 00:40:50;;;;;;;0.60;0.20;;;;;;;;;;4149637;28;20104;-46
2022/09/15 00:42:52;;;;;;;0.10;0.10;;;;;;;;;;4149451;28;20054;-47
2022/09/15 00:44:56;;;;;;;0.05;0.05;;;;;;;;;;4148126;28;20100;-46
2022/09/15 00:46:57;;;;;;;0.20;0.10;;;;;;;;;;4149448;28;20085;-46
2022/09/15 00:49:03;;;;;;;0.68;0.20;;;;;;;;;;4148995;28;20062;-46
2022/09/15 00:51:05;;;;;;;0.10;0.10;;;;;;;;;;4148184;28;20054;-47
2022/09/15 00:53:08;;;;;;;0.10;0.10;;;;;;;;;;4131575;28;20414;-50
2022/09/15 00:55:19;;;;;;;0.15;0.15;;;;;;;;;;4147997;28;20112;-47
2022/09/15 00:57:37;;;;;;;0.20;0.20;;;;;;;;;;4131727;28;20126;-48
2022/09/15 00:59:40;;;;;;;0.10;0.10;;;;;;;;;;4149142;28;20188;-46
2022/09/15 01:01:42;;;;;;;0.10;0.10;;;;;;;;;;4147747;28;20476;-48
2022/09/15 01:03:44;;;;;;;0.22;0.10;;;;;;;;;;4147110;28;20050;-50
2022/09/15 01:05:53;;;;;;;0.05;0.05;;;;;;;;;;4147673;28;20049;-46
2022/09/15 01:08:05;;;;;;;0.20;0.10;;;;;;;;;;4147581;28;20076;-47
2022/09/15 01:10:22;;;;;;;0.10;0.10;;;;;;;;;;4131530;28;20478;-48
2022/09/15 01:12:24;;;;;;;0.22;0.10;;;;;;;;;;4147555;28;20050;-46
2022/09/15 01:14:26;;;;;;;0.20;0.10;;;;;;;;;;4148940;28;20054;-48
2022/09/15 01:16:38;;;;;;;0.28;0.10;;;;;;;;;;4148742;28;20481;-48
2022/09/15 01:19:20;;;;;;;0.10;0.10;;;;;;;;;;4148195;28;20053;-46
2022/09/15 01:21:28;;;;;;;0.10;0.10;;;;;;;;;;4148833;28;20050;-49
2022/09/15 01:24:21;;;;;;;1.35;0.10;;;;;;;;;;4148562;28;20385;-48
2022/09/15 01:26:51;;;;;;;0.17;0.17;;;;;;;;;;4131428;28;20120;-47
2022/09/15 01:29:06;;;;;;;;;;;;;;;;;;4149182;28;20061;-47
2022/09/15 01:31:14;;;;;;;0.25;0.10;;;;;;;;;;4147531;28;19922;-47
2022/09/15 01:33:36;;;;;;;0.10;0.10;;;;;;;;;;4163423;28;20053;-47
2022/09/15 01:36:23;;;;;;;0.00;0.00;;;;;;;;;;4148643;28;20080;-50
2022/09/15 01:38:49;;;;;;;0.32;0.20;;;;;;;;;;4130120;28;20471;-48
2022/09/15 01:40:57;;;;;;;0.10;0.10;;;;;;;;;;4148382;28;20159;-48
2022/09/15 01:43:00;;;;;;;0.10;0.10;;;;;;;;;;4148344;28;20046;-48
2022/09/15 01:45:05;;;;;;;0.55;0.30;;;;;;;;;;4130461;28;20129;-48
2022/09/15 01:47:08;;;;;;;0.10;0.10;;;;;;;;;;4129306;28;20414;-47
2022/09/15 01:49:11;;;;;;;0.20;0.10;;;;;;;;;;4114262;28;20090;-50
2022/09/15 01:51:12;;;;;;;0.10;0.10;;;;;;;;;;4142935;28;20116;-48
2022/09/15 01:53:17;;;;;;;0.30;0.30;;;;;;;;;;4146819;28;20049;-49
2022/09/15 01:55:45;;;;;;;0.28;0.10;;;;;;;;;;4148412;28;20064;-47
2022/09/15 01:57:47;;;;;;;0.10;0.10;;;;;;;;;;4146709;28;20061;-47
2022/09/15 01:59:50;;;;;;;0.10;0.10;;;;;;;;;;4147120;28;20054;-47
2022/09/15 02:01:57;;;;;;;0.08;0.08;;;;;;;;;;4148183;28;20064;-48
2022/09/15 02:04:44;;;;;;;0.15;0.10;;;;;;;;;;4147158;28;20128;-47
2022/09/15 02:07:10;;;;;;;0.40;0.10;;;;;;;;;;4147034;28;20401;-49
2022/09/15 02:09:18;;;;;;;0.13;0.10;;;;;;;;;;4146914;28;20185;-49
2022/09/15 02:11:26;;;;;;;0.10;0.10;;;;;;;;;;4148391;28;20112;-46
2022/09/15 02:13:47;;;;;;;0.10;0.10;;;;;;;;;;4146586;28;20412;-46
2022/09/15 02:15:52;;;;;;;0.00;0.00;;;;;;;;;;4148045;28;20056;-48
2022/09/15 02:17:54;;;;;;;0.45;0.15;;;;;;;;;;4147478;28;20104;-46
2022/09/15 02:20:02;;;;;;;0.20;0.10;;;;;;;;;;4147912;28;20096;-46
2022/09/15 02:22:23;;;;;;;0.40;0.10;;;;;;;;;;4146598;28;20493;-49
2022/09/15 02:24:32;;;;;;;0.10;0.10;;;;;;;;;;4146617;28;20456;-46
2022/09/15 02:26:36;;;;;;;0.47;0.10;;;;;;;;;;4146629;28;20413;-46
2022/09/15 02:28:38;;;;;;;0.10;0.10;;;;;;;;;;4147505;28;20104;-45
2022/09/15 02:30:42;;;;;;;0.30;0.10;;;;;;;;;;4145771;28;20050;-46
2022/09/15 02:32:48;;;;;;;0.40;0.10;;;;;;;;;;4129792;28;20054;-49
2022/09/15 02:34:50;;;;;;;0.25;0.20;;;;;;;;;;4146324;28;20049;-48
2022/09/15 02:36:52;;;;;;;0.35;0.10;;;;;;;;;;4147658;28;20054;-46
2022/09/15 02:39:00;;;;;;;0.10;0.10;;;;;;;;;;4147573;28;20057;-47
2022/09/15 02:41:01;;;;;;;0.20;0.10;;;;;;;;;;4147425;28;20644;-47
2022/09/15 02:43:04;;;;;;;0.20;0.13;;;;;;;;;;4148053;28;20096;-48
2022/09/15 02:45:05;;;;;;;0.22;0.22;;;;;;;;;;4146375;28;20065;-47
2022/09/15 02:47:07;;;;;;;0.10;0.10;;;;;;;;;;4147045;28;20066;-46
2022/09/15 02:49:08;;;;;;;0.30;0.20;;;;;;;;;;4147271;28;20490;-47
2022/09/15 02:51:09;;;;;;;0.20;0.20;;;;;;;;;;4146217;28;20123;-49
2022/09/15 02:53:10;;;;;;;0.17;0.10;;;;;;;;;;4146190;28;20116;-47
2022/09/15 02:55:11;;;;;;;0.10;0.10;;;;;;;;;;4147690;28;20070;-48
2022/09/15 02:57:13;;;;;;;0.22;0.20;;;;;;;;;;4147504;28;20066;-47
2022/09/15 02:59:14;;;;;;;0.17;0.10;;;;;;;;;;4147270;28;20053;-49
2022/09/15 03:01:15;;;;;;;0.40;0.10;;;;;;;;;;4147226;28;20107;-47
2022/09/15 03:03:17;;;;;;;1.85;0.20;;;;;;;;;;4146740;28;20113;-47
2022/09/15 03:05:21;;;;;;;0.25;0.25;;;;;;;;;;4146773;28;20422;-48
2022/09/15 03:07:23;;;;;;;0.10;0.10;;;;;;;;;;4146292;28;20053;-48
2022/09/15 03:09:24;;;;;;;0.45;0.20;;;;;;;;;;4147122;28;20061;-49
2022/09/15 03:11:27;;;;;;;0.20;0.10;;;;;;;;;;4147337;28;20065;-48
2022/09/15 03:13:28;;;;;;;0.10;0.10;;;;;;;;;;4147151;28;20050;-48
2022/09/15 03:15:30;;;;;;;0.10;0.10;;;;;;;;;;4146851;28;20062;-49
2022/09/15 03:17:36;;;;;;;0.52;0.20;;;;;;;;;;4146474;28;20058;-48
2022/09/15 03:19:37;;;;;;;0.10;0.10;;;;;;;;;;4147016;28;20108;-46
2022/09/15 03:21:38;;;;;;;0.10;0.10;;;;;;;;;;4146894;28;20125;-47
2022/09/15 03:23:39;;;;;;;0.10;0.10;;;;;;;;;;4146843;28;20050;-47
2022/09/15 03:25:40;;;;;;;0.08;0.08;;;;;;;;;;4129061;28;20125;-51
2022/09/15 03:27:42;;;;;;;0.20;0.00;;;;;;;;;;4128610;28;20066;-49
2022/09/15 03:29:43;;;;;;;0.00;0.00;;;;;;;;;;4134849;28;20058;-46
2022/09/15 03:31:44;;;;;;;0.10;0.10;;;;;;;;;;4144887;28;20058;-47
2022/09/15 03:33:46;;;;;;;0.10;0.10;;;;;;;;;;4144406;28;20120;-48
2022/09/15 03:35:48;;;;;;;0.03;0.03;;;;;;;;;;4144689;28;20062;-47
2022/09/15 03:37:49;;;;;;;0.25;0.10;;;;;;;;;;4144998;28;20053;-51
2022/09/15 03:39:50;;;;;;;0.10;0.10;;;;;;;;;;4144796;28;20074;-48
2022/09/15 03:41:52;;;;;;;0.30;0.10;;;;;;;;;;4144751;28;20057;-47
2022/09/15 03:43:53;;;;;;;0.30;0.20;;;;;;;;;;4144615;28;20061;-51
2022/09/15 03:45:55;;;;;;;0.10;0.10;;;;;;;;;;4144737;28;20065;-51
2022/09/15 03:47:56;;;;;;;0.05;0.00;;;;;;;;;;4144406;28;20062;-48
2022/09/15 03:49:58;;;;;;;0.43;0.10;;;;;;;;;;4144717;28;20065;-51
2022/09/15 03:51:59;;;;;;;0.10;0.00;;;;;;;;;;4144979;28;20061;-47
2022/09/15 03:54:00;;;;;;;0.20;0.10;;;;;;;;;;4144688;28;20058;-47
2022/09/15 03:56:10;;;;;;;0.10;0.10;;;;;;;;;;4144931;28;20054;-49
2022/09/15 03:58:12;;;;;;;0.30;0.10;;;;;;;;;;4144666;28;20352;-47
2022/09/15 04:00:13;;;;;;;0.13;0.10;;;;;;;;;;4143204;28;20120;-48
2022/09/15 04:02:14;;;;;;;0.10;0.10;;;;;;;;;;4144076;28;20156;-49
2022/09/15 04:04:16;;;;;;;0.10;0.10;;;;;;;;;;4144339;28;20146;-47
2022/09/15 04:06:19;;;;;;;0.00;0.00;;;;;;;;;;4144613;28;20066;-50
2022/09/15 04:08:20;;;;;;;0.10;0.10;;;;;;;;;;4137678;28;20054;-49
2022/09/15 04:10:23;;;;;;;0.20;0.10;;;;;;;;;;4143851;28;20391;-51
2022/09/15 04:12:24;;;;;;;0.10;0.10;;;;;;;;;;4142899;28;20062;-50
2022/09/15 04:14:25;;;;;;;0.10;0.10;;;;;;;;;;4142784;28;20062;-49
2022/09/15 04:16:27;;;;;;;0.28;0.15;;;;;;;;;;4142889;28;20057;-50
2022/09/15 04:18:29;;;;;;;0.10;0.10;;;;;;;;;;4142375;28;20115;-49
2022/09/15 04:20:30;;;;;;;0.10;0.10;;;;;;;;;;4143270;28;20111;-49
2022/09/15 04:22:31;;;;;;;0.15;0.10;;;;;;;;;;4143313;28;20068;-51
2022/09/15 04:24:32;;;;;;;0.15;0.10;;;;;;;;;;4142709;28;20066;-47
2022/09/15 04:26:35;;;;;;;0.03;0.03;;;;;;;;;;4144111;28;20084;-50
2022/09/15 04:28:37;;;;;;;0.28;0.10;;;;;;;;;;4126766;28;20116;-50
2022/09/15 04:30:38;;;;;;;0.10;0.10;;;;;;;;;;4144313;28;20058;-51
2022/09/15 04:32:39;;;;;;;0.10;0.10;;;;;;;;;;4144101;28;20112;-48
2022/09/15 04:34:40;;;;;;;0.10;0.10;;;;;;;;;;4144467;28;20112;-46
2022/09/15 04:36:41;;;;;;;0.10;0.10;;;;;;;;;;4144337;28;20049;-47
2022/09/15 04:38:43;;;;;;;0.10;0.10;;;;;;;;;;4144375;28;20121;-48
2022/09/15 04:40:44;;;;;;;0.22;0.13;;;;;;;;;;4144343;28;20108;-48
2022/09/15 04:42:46;;;;;;;0.05;0.05;;;;;;;;;;4144223;28;20058;-47
2022/09/15 04:44:47;;;;;;;0.10;0.10;;;;;;;;;;4143103;28;20057;-48
2022/09/15 04:46:48;;;;;;;0.10;0.10;;;;;;;;;;4143061;28;20117;-46
2022/09/15 04:48:51;;;;;;;0.10;0.10;;;;;;;;;;4143266;28;20462;-48
2022/09/15 04:50:52;;;;;;;0.10;0.10;;;;;;;;;;4144485;28;20061;-46
2022/09/15 04:52:53;;;;;;;0.40;0.17;;;;;;;;;;4144850;28;20494;-47
2022/09/15 04:54:54;;;;;;;0.40;0.25;;;;;;;;;;4145284;28;20123;-49
2022/09/15 04:56:55;;;;;;;0.28;0.20;;;;;;;;;;4149268;28;20100;-48
2022/09/15 04:58:58;;;;;;;0.00;0.00;;;;;;;;;;4147756;28;20461;-47
2022/09/15 05:01:06;;;;;;;0.32;0.10;;;;;;;;;;4140240;28;20501;-48
2022/09/15 05:03:08;;;;;;;0.32;0.20;;;;;;;;;;4130247;28;20054;-48
2022/09/15 05:05:09;;;;;;;0.10;0.10;;;;;;;;;;4130939;28;20098;-47
2022/09/15 05:07:10;;;;;;;0.10;0.10;;;;;;;;;;4130140;28;20189;-48
2022/09/15 05:09:12;;;;;;;0.10;0.10;;;;;;;;;;4141753;28;20058;-48
2022/09/15 05:11:14;;;;;;;0.28;0.10;;;;;;;;;;4145540;28;20171;-47
2022/09/15 05:13:15;;;;;;;0.32;0.17;;;;;;;;;;4146608;28;20053;-49
2022/09/15 05:15:16;;;;;;;0.10;0.10;;;;;;;;;;4146907;28;20100;-49
2022/09/15 05:17:17;;;;;;;0.10;0.10;;;;;;;;;;4145476;28;20053;-47
2022/09/15 05:19:19;;;;;;;0.22;0.10;;;;;;;;;;4146774;28;20050;-48
2022/09/15 05:21:21;;;;;;;0.13;0.10;;;;;;;;;;4146633;28;20101;-47
2022/09/15 05:23:22;;;;;;;0.13;0.10;;;;;;;;;;4135530;28;20054;-49
2022/09/15 05:25:24;;;;;;;0.30;0.20;;;;;;;;;;4144813;28;20139;-51
2022/09/15 05:27:25;;;;;;;0.20;0.10;;;;;;;;;;4145986;28;20566;-47
2022/09/15 05:29:26;;;;;;;0.10;0.10;;;;;;;;;;4145183;28;20054;-47
2022/09/15 05:31:29;;;;;;;0.10;0.10;;;;;;;;;;4146590;28;20061;-48
2022/09/15 05:33:31;;;;;;;0.22;0.22;;;;;;;;;;4146085;28;20386;-47
2022/09/15 05:35:32;;;;;;;0.40;0.10;;;;;;;;;;4143734;28;20108;-47
2022/09/15 05:37:33;;;;;;;0.20;0.10;;;;;;;;;;4144739;28;20505;-48
2022/09/15 05:39:34;;;;;;;0.10;0.10;;;;;;;;;;4149295;28;20200;-48
2022/09/15 05:41:35;;;;;;;0.20;0.10;;;;;;;;;;4135518;28;20757;-49
2022/09/15 05:43:38;;;;;;;0.75;0.10;;;;;;;;;;4140866;28;20496;-49
2022/09/15 05:45:41;;;;;;;0.10;0.10;;;;;;;;;;4145462;28;20065;-49
2022/09/15 05:47:42;;;;;;;0.13;0.10;;;;;;;;;;4140631;28;20195;-47
2022/09/15 05:49:43;;;;;;;0.20;0.10;;;;;;;;;;4141920;28;20054;-47
2022/09/15 05:51:44;;;;;;;0.77;0.38;;;;;;;;;;4136761;28;20367;-49
2022/09/15 05:53:45;;;;;;;0.20;0.20;;;;;;;;;;4140507;28;20489;-48
2022/09/15 05:55:47;;;;;;;0.20;0.20;;;;;;;;;;4143720;28;20108;-47
2022/09/15 05:57:48;;;;;;;0.20;0.10;;;;;;;;;;4143371;28;20123;-49
2022/09/15 05:59:49;;;;;;;0.10;0.10;;;;;;;;;;4142413;28;20065;-48
2022/09/15 06:01:50;;;;;;;0.17;0.17;;;;;;;;;;4140644;28;20049;-49
2022/09/15 06:03:52;;;;;;;0.55;0.10;;;;;;;;;;4142269;28;20054;-49
2022/09/15 06:06:01;;;;;;;0.30;0.20;;;;;;;;;;4144747;28;20054;-49
2022/09/15 06:08:02;;;;;;;1.50;0.10;;;;;;;;;;4139940;28;20054;-48
2022/09/15 06:10:04;;;;;;;0.38;0.20;;;;;;;;;;4141985;28;20531;-48
2022/09/15 06:12:05;;;;;;;0.25;0.20;;;;;;;;;;4137151;28;20116;-50
2022/09/15 06:14:06;;;;;;;1.40;0.20;;;;;;;;;;4140800;28;20056;-49
2022/09/15 06:16:10;;;;;;;1.85;0.28;;;;;;;;;;4142814;28;20054;-47
2022/09/15 06:18:11;;;;;;;0.88;0.10;;;;;;;;;;4138403;28;20111;-48
2022/09/15 06:20:13;;;;;;;0.10;0.10;;;;;;;;;;4139863;28;20120;-47
2022/09/15 06:22:14;;;;;;;0.20;0.20;;;;;;;;;;4139041;28;20050;-47
2022/09/15 06:24:16;;;;;;;0.10;0.10;;;;;;;;;;4126789;28;20065;-48
2022/09/15 06:26:18;;;;;;;0.40;0.25;;;;;;;;;;4138055;28;20350;-49
2022/09/15 06:28:19;;;;;;;0.10;0.10;;;;;;;;;;4128136;28;20068;-47
2022/09/15 06:30:20;;;;;;;0.68;0.20;;;;;;;;;;4136299;28;20053;-47
2022/09/15 06:32:21;;;;;;;2.00;0.20;;;;;;;;;;4132826;28;21688;-48
2022/09/15 06:34:22;;;;;;;0.20;0.13;;;;;;;;;;4135596;28;20050;-46
2022/09/15 06:36:26;;;;;;;0.47;0.10;;;;;;;;;;4135105;28;20053;-46
2022/09/15 06:38:28;;;;;;;2.00;0.20;;;;;;;;;;4126537;28;20050;-50
2022/09/15 06:40:29;;;;;;;2.00;0.20;;;;;;;;;;4129529;28;20112;-49
2022/09/15 06:42:30;;;;;;;0.80;0.30;;;;;;;;;;4138441;28;20050;-48
2022/09/15 06:44:32;;;;;;;1.52;0.20;;;;;;;;;;4138984;28;20107;-47
2022/09/15 06:46:35;;;;;;;0.28;0.15;;;;;;;;;;4134823;28;20131;-46
2022/09/15 06:48:37;;;;;;;0.68;0.55;;;;;;;;;;4137725;28;20100;-46
2022/09/15 06:50:38;;;;;;;0.50;0.20;;;;;;;;;;4136392;28;20057;-47
2022/09/15 06:52:39;;;;;;;0.85;0.20;;;;;;;;;;4139534;28;20060;-46
2022/09/15 06:54:40;;;;;;;0.75;0.35;;;;;;;;;;4140252;28;20058;-47
2022/09/15 06:56:41;;;;;;;0.30;0.20;;;;;;;;;;4136964;28;20571;-48
2022/09/15 06:58:43;;;;;;;0.30;0.10;;;;;;;;;;4131197;28;20054;-46
2022/09/15 07:00:45;;;;;;;1.27;0.20;;;;;;;;;;4131507;28;20054;-47
2022/09/15 07:02:49;;;;;;;1.17;0.20;;;;;;;;;;4127623;28;20436;-47
2022/09/15 07:04:50;;;;;;;0.65;0.35;;;;;;;;;;4121293;28;23142;-46
2022/09/15 07:06:52;;;;;;;0.85;0.30;;;;;;;;;;4130081;28;20091;-47
2022/09/15 07:08:53;;;;;;;1.05;0.10;;;;;;;;;;4132167;28;20138;-46
2022/09/15 07:10:54;;;;;;;1.35;0.22;;;;;;;;;;4135531;28;20100;-46
2022/09/15 07:12:55;;;;;;;0.50;0.25;;;;;;;;;;4132358;28;20054;-47
2022/09/15 07:14:56;;;;;;;1.52;0.40;;;;;;;;;;4132691;28;20058;-50
2022/09/15 07:16:57;;;;;;;1.58;0.22;;;;;;;;;;4128977;28;20096;-48
2022/09/15 07:19:01;;;;;;;0.35;0.10;;;;;;;;;;4129317;28;20100;-47
2022/09/15 07:21:08;;;;;;;3.30;0.20;;;;;;;;;;4127941;28;20057;-47
2022/09/15 07:23:09;;;;;;;0.20;0.20;;;;;;;;;;4129778;28;20103;-47
2022/09/15 07:25:10;;;;;;;0.20;0.10;;;;;;;;;;4130796;28;20512;-47
2022/09/15 07:27:12;;;;;;;0.15;0.10;;;;;;;;;;4132259;28;20065;-48
2022/09/15 07:29:13;;;;;;;1.27;0.20;;;;;;;;;;4127015;28;20058;-47
2022/09/15 07:31:16;;;;;;;3.38;0.20;;;;;;;;;;4125839;28;20057;-47
2022/09/15 07:33:17;;;;;;;1.30;0.20;;;;;;;;;;4129193;28;20050;-49
2022/09/15 07:35:20;;;;;;;0.50;0.28;;;;;;;;;;4127791;28;20100;-48
2022/09/15 07:37:21;;;;;;;0.55;0.20;;;;;;;;;;4125680;28;20623;-47
2022/09/15 07:39:23;;;;;;;0.70;0.50;;;;;;;;;;4132258;28;20065;-46
2022/09/15 07:41:26;;;;;;;0.85;0.30;;;;;;;;;;4132218;28;20062;-51
2022/09/15 07:43:27;;;;;;;1.13;0.22;;;;;;;;;;4129629;28;20101;-48
2022/09/15 07:45:29;;;;;;;1.75;0.20;;;;;;;;;;4135905;28;20590;-47
2022/09/15 07:47:30;;;;;;;0.20;0.13;;;;;;;;;;4129298;28;20057;-48
2022/09/15 07:49:31;;;;;;;1.15;0.15;;;;;;;;;;4128635;28;20063;-47
2022/09/15 07:51:32;;;;;;;0.20;0.20;;;;;;;;;;4132282;28;20065;-46
2022/09/15 07:53:34;;;;;;;1.75;0.63;;;;;;;;;;4131510;28;20054;-48
2022/09/15 07:55:35;;;;;;;1.55;0.20;;;;;;;;;;4133807;28;20204;-47
2022/09/15 07:57:36;;;;;;;0.38;0.17;;;;;;;;;;4133864;28;20501;-47
2022/09/15 07:59:37;;;;;;;1.88;0.20;;;;;;;;;;4123365;28;20057;-47
2022/09/15 08:01:39;;;;;;;0.52;0.05;;;;;;;;;;4129179;28;20057;-47
2022/09/15 08:03:41;;;;;;;1.65;0.17;;;;;;;;;;4131216;28;20410;-47
2022/09/15 08:05:42;;;;;;;0.10;0.10;;;;;;;;;;4131146;28;20113;-46
2022/09/15 08:07:44;;;;;;;0.50;0.10;;;;;;;;;;4133318;28;20658;-47
2022/09/15 08:09:45;;;;;;;2.17;0.10;;;;;;;;;;4130482;28;20058;-46
2022/09/15 08:11:46;;;;;;;0.10;0.10;;;;;;;;;;4131699;28;20505;-47
2022/09/15 08:13:49;;;;;;;1.85;0.10;;;;;;;;;;4129522;28;20402;-47
2022/09/15 08:15:51;;;;;;;0.10;0.10;;;;;;;;;;4127064;28;20054;-47
2022/09/15 08:17:52;;;;;;;0.47;0.10;;;;;;;;;;4128423;28;20143;-47
2022/09/15 08:19:53;;;;;;;0.40;0.10;;;;;;;;;;4135783;28;20061;-48
2022/09/15 08:21:54;;;;;;;0.17;0.10;;;;;;;;;;4128292;28;20053;-47
2022/09/15 08:23:57;;;;;;;0.68;0.10;;;;;;;;;;4128812;28;20159;-48
2022/09/15 08:25:59;;;;;;;0.28;0.22;;;;;;;;;;4143975;28;20528;-48
2022/09/15 08:28:00;;;;;;;0.80;0.10;;;;;;;;;;4129819;28;20062;-47
2022/09/15 08:30:01;;;;;;;0.30;0.10;;;;;;;;;;4128911;28;20397;-48
2022/09/15 08:32:02;;;;;;;1.20;0.20;;;;;;;;;;4132936;28;20058;-48
2022/09/15 08:34:05;;;;;;;1.13;0.10;;;;;;;;;;4128402;28;20054;-49
2022/09/15 08:36:12;;;;;;;0.55;0.10;;;;;;;;;;4133911;28;20065;-47
2022/09/15 08:38:13;;;;;;;0.43;0.15;;;;;;;;;;4130670;28;20164;-47
2022/09/15 08:40:35;;;;;;;0.17;0.15;;;;;;;;;;4130958;28;20064;-48
2022/09/15 08:42:38;;;;;;;0.40;0.05;;;;;;;;;;4134274;28;20058;-48
2022/09/15 08:44:44;;;;;;;0.30;0.10;;;;;;;;;;4124612;28;20486;-47
2022/09/15 08:46:59;;;;;;;0.82;0.10;;;;;;;;;;4127309;28;21092;-47
2022/09/15 08:49:16;;;;;;;0.00;0.00;;;;;;;;;;4132029;28;20510;-47
2022/09/15 08:51:27;;;;;;;0.20;0.20;;;;;;;;;;4132715;28;20084;-48
2022/09/15 08:53:33;;;;;;;0.50;0.10;;;;;;;;;;4130813;28;20058;-46
2022/09/15 08:55:43;;;;;;;0.20;0.03;;;;;;;;;;4126407;28;20054;-47
2022/09/15 08:57:44;;;;;;;;;;;;;;;;;;4134273;28;20077;-47
2022/09/15 08:59:46;;;;;;;0.28;0.10;;;;;;;;;;4130247;28;19983;-46
2022/09/15 09:01:58;;;;;;;0.43;0.30;;;;;;;;;;4132881;28;20045;-46
2022/09/15 09:04:15;;;;;;;0.47;0.10;;;;;;;;;;4128279;28;20422;-48
2022/09/15 09:06:40;;;;;;;0.40;0.10;;;;;;;;;;4134705;28;20061;-46
2022/09/15 09:09:15;;;;;;;0.20;0.13;;;;;;;;;;4125503;28;20057;-46
2022/09/15 09:11:18;;;;;;;0.73;0.10;;;;;;;;;;4131421;28;20796;-47
2022/09/15 09:13:37;;;;;;;1.38;0.10;;;;;;;;;;4129922;28;20488;-47
2022/09/15 09:16:03;;;;;;;0.38;0.10;;;;;;;;;;4132292;28;20580;-47
2022/09/15 09:18:28;;;;;;;0.35;0.20;;;;;;;;;;4130746;28;20050;-47
2022/09/15 09:20:44;;;;;;;0.10;0.10;;;;;;;;;;4130328;28;20434;-47
2022/09/15 09:22:47;;;;;;;0.00;0.00;;;;;;;;;;4125080;28;20062;-47
2022/09/15 09:24:59;;;;;;;0.28;0.10;;;;;;;;;;4123495;28;20654;-48
2022/09/15 09:27:00;;;;;;;0.57;0.10;;;;;;;;;;4131486;28;20084;-45
2022/09/15 09:29:18;;;;;;;0.20;0.20;;;;;;;;;;4134059;28;20123;-47
2022/09/15 09:31:21;;;;;;;3.17;0.10;;;;;;;;;;4133140;28;20724;-46
2022/09/15 09:34:06;;;;;;;0.17;0.10;;;;;;;;;;4129977;28;20064;-47
2022/09/15 09:36:10;;;;;;;0.22;0.10;;;;;;;;;;4142383;28;20132;-47
2022/09/15 09:38:18;;;;;;;1.00;0.20;;;;;;;;;;4132204;28;20482;-47
2022/09/15 09:40:19;;;;;;;0.90;0.17;;;;;;;;;;4131113;28;20674;-47
2022/09/15 09:42:26;;;;;;;0.20;0.10;;;;;;;;;;4134699;28;20465;-48
2022/09/15 09:44:30;;;;;;;0.28;0.10;;;;;;;;;;4132468;28;20056;-48
2022/09/15 09:46:33;;;;;;;0.50;0.20;;;;;;;;;;4136172;28;20497;-46
2022/09/15 09:48:34;;;;;;;0.13;0.13;;;;;;;;;;4137098;28;20492;-47
2022/09/15 09:50:39;;;;;;;1.52;0.00;;;;;;;;;;4124511;28;20113;-47
2022/09/15 09:52:40;;;;;;;0.20;0.10;;;;;;;;;;4134787;28;20659;-46
2022/09/15 09:54:41;;;;;;;0.63;0.05;;;;;;;;;;4128518;28;20136;-47
2022/09/15 09:56:43;;;;;;;1.25;0.20;;;;;;;;;;4129928;28;20453;-47
2022/09/15 09:58:45;;;;;;;1.42;0.05;;;;;;;;;;4136009;28;20370;-47
2022/09/15 10:00:46;;;;;;;0.80;0.10;;;;;;;;;;4126833;28;20128;-48
2022/09/15 10:02:48;;;;;;;0.10;0.10;;;;;;;;;;4134631;28;20101;-48
2022/09/15 10:05:07;;;;;;;1.35;0.10;;;;;;;;;;4135951;28;20394;-47
2022/09/15 10:07:09;;;;;;;0.30;0.15;;;;;;;;;;4134125;28;20555;-48
2022/09/15 10:09:16;;;;;;;0.73;0.20;;;;;;;;;;4137512;28;20066;-47
2022/09/15 10:11:17;;;;;;;0.85;0.20;;;;;;;;;;4134839;28;20080;-47
2022/09/15 10:13:19;;;;;;;0.20;0.10;;;;;;;;;;4139182;28;20575;-48
2022/09/15 10:15:32;;;;;;;2.05;0.22;;;;;;;;;;4137125;28;20488;-50
2022/09/15 10:17:43;;;;;;;0.15;0.10;;;;;;;;;;4137101;28;20085;-48
2022/09/15 10:19:53;;;;;;;0.00;0.00;;;;;;;;;;4136374;28;20058;-48
2022/09/15 10:21:54;;;;;;;0.10;0.10;;;;;;;;;;4154243;28;20053;-48
2022/09/15 10:24:43;;;;;;;0.73;0.10;;;;;;;;;;4137497;28;20504;-49
2022/09/15 10:26:44;;;;;;;0.15;0.10;;;;;;;;;;4134131;28;20155;-48
2022/09/15 10:29:21;;;;;;;1.25;0.10;;;;;;;;;;4136807;28;20061;-48
2022/09/15 10:31:31;;;;;;;0.20;0.10;;;;;;;;;;4119864;28;20112;-50
2022/09/15 10:33:41;;;;;;;0.10;0.10;;;;;;;;;;4126187;28;20754;-48
2022/09/15 10:35:42;;;;;;;2.47;0.08;;;;;;;;;;4142773;28;20452;-48
2022/09/15 10:38:06;;;;;;;1.20;0.10;;;;;;;;;;4131191;28;20049;-51
2022/09/15 10:40:20;;;;;;;0.17;0.10;;;;;;;;;;4131092;28;20054;-49
2022/09/15 10:42:44;;;;;;;0.60;0.20;;;;;;;;;;4123068;28;20061;-49
2022/09/15 10:45:07;;;;;;;0.00;0.00;;;;;;;;;;4120426;28;20100;-48
2022/09/15 10:47:23;;;;;;;0.10;0.10;;;;;;;;;;4131100;28;20111;-48
2022/09/15 10:49:51;;;;;;;0.93;0.20;;;;;;;;;;4128160;28;20113;-50
2022/09/15 10:52:14;;;;;;;0.17;0.10;;;;;;;;;;4130252;28;20112;-48
2022/09/15 10:54:35;;;;;;;0.47;0.20;;;;;;;;;;4131284;28;20054;-49
2022/09/15 10:56:40;;;;;;;0.20;0.10;;;;;;;;;;4123947;28;20057;-49
2022/09/15 10:59:02;;;;;;;0.30;0.10;;;;;;;;;;4118905;28;20057;-48
2022/09/15 11:01:19;;;;;;;0.13;0.13;;;;;;;;;;4128553;28;20127;-50
2022/09/15 11:03:59;;;;;;;0.22;0.15;;;;;;;;;;4133573;28;20133;-48
2022/09/15 11:06:02;;;;;;;;;;;;;;;;;;4132129;28;20111;-48
2022/09/15 11:08:19;;;;;;;0.10;0.10;;;;;;;;;;4122378;28;19972;-48
2022/09/15 11:10:58;;;;;;;0.50;0.20;;;;;;;;;;4129690;28;20418;-48
2022/09/15 11:13:29;;;;;;;1.75;0.10;;;;;;;;;;4127575;28;20045;-48
2022/09/15 11:16:11;;;;;;;0.32;0.10;;;;;;;;;;4129539;28;20892;-48
2022/09/15 11:18:31;;;;;;;0.75;0.20;;;;;;;;;;4118975;28;20053;-49
2022/09/15 11:20:50;;;;;;;0.00;0.00;;;;;;;;;;4119399;28;20108;-49
2022/09/15 11:23:20;;;;;;;0.13;0.10;;;;;;;;;;4122487;28;20484;-49
2022/09/15 11:25:27;;;;;;;0.22;0.13;;;;;;;;;;4131026;28;20425;-47
2022/09/15 11:27:28;;;;;;;0.38;0.15;;;;;;;;;;4129950;28;20116;-48
2022/09/15 11:29:32;;;;;;;0.20;0.10;;;;;;;;;;4132326;28;20580;-48
2022/09/15 11:31:41;;;;;;;1.15;0.20;;;;;;;;;;4122985;28;20060;-49
2022/09/15 11:33:50;;;;;;;0.10;0.10;;;;;;;;;;4124450;28;20046;-50
2022/09/15 11:36:18;;;;;;;0.13;0.10;;;;;;;;;;4137918;28;20112;-50
2022/09/15 11:38:47;;;;;;;0.40;0.10;;;;;;;;;;4131129;28;20057;-48
2022/09/15 11:41:15;;;;;;;0.65;0.20;;;;;;;;;;4130628;28;20117;-48
2022/09/15 11:43:33;;;;;;;0.20;0.15;;;;;;;;;;4135177;28;20058;-48
2022/09/15 11:45:39;;;;;;;0.30;0.13;;;;;;;;;;4144802;28;20174;-48
2022/09/15 11:47:47;;;;;;;0.30;0.20;;;;;;;;;;4133618;28;20085;-48
2022/09/15 11:49:56;;;;;;;0.20;0.10;;;;;;;;;;4130569;28;20135;-50
2022/09/15 11:52:35;;;;;;;0.85;0.20;;;;;;;;;;4135679;28;20108;-49
2022/09/15 11:54:42;;;;;;;0.80;0.20;;;;;;;;;;4131937;28;20057;-48
2022/09/15 11:56:44;;;;;;;0.30;0.30;;;;;;;;;;4132356;28;20465;-50
2022/09/15 11:59:03;;;;;;;1.20;0.30;;;;;;;;;;4128755;28;20053;-48
2022/09/15 12:01:24;;;;;;;0.63;0.10;;;;;;;;;;4146326;28;20068;-48
2022/09/15 12:03:36;;;;;;;0.32;0.10;;;;;;;;;;4139326;28;20156;-50
2022/09/15 12:05:58;;;;;;;0.13;0.00;;;;;;;;;;4126835;28;20084;-49
2022/09/15 12:08:05;;;;;;;0.57;0.20;;;;;;;;;;4138557;28;20084;-50
2022/09/15 12:10:15;;;;;;;0.20;0.10;;;;;;;;;;4135227;28;20088;-48
2022/09/15 12:12:19;;;;;;;0.10;0.10;;;;;;;;;;4135850;28;20948;-51
2022/09/15 12:14:29;;;;;;;1.58;0.40;;;;;;;;;;4135670;28;20046;-49
2022/09/15 12:16:32;;;;;;;1.10;0.20;;;;;;;;;;4136650;28;20093;-49
2022/09/15 12:18:47;;;;;;;0.25;0.20;;;;;;;;;;4131802;28;20053;-49
2022/09/15 12:20:51;;;;;;;0.22;0.10;;;;;;;;;;4133919;28;20496;-48
2022/09/15 12:23:05;;;;;;;0.43;0.20;;;;;;;;;;4132690;28;21026;-50
2022/09/15 12:25:27;;;;;;;0.22;0.10;;;;;;;;;;4123874;28;20056;-48
2022/09/15 12:27:29;;;;;;;0.70;0.10;;;;;;;;;;4130331;28;20124;-48
2022/09/15 12:29:39;;;;;;;0.10;0.10;;;;;;;;;;4136498;28;20103;-49
2022/09/15 12:31:40;;;;;;;0.10;0.10;;;;;;;;;;4133935;28;20116;-49
2022/09/15 12:33:41;;;;;;;0.85;0.20;;;;;;;;;;4132875;28;27095;-49
2022/09/15 12:35:42;;;;;;;0.10;0.10;;;;;;;;;;4137619;28;20168;-49
2022/09/15 12:37:48;;;;;;;0.70;0.10;;;;;;;;;;4135814;28;20756;-50